createdAt,value
2018-07-08T00:02:10.597Z,74.74
2018-07-08T00:04:42.613Z,75.62
2018-07-08T00:07:14.720Z,76.16
2018-07-08T00:09:45.884Z,76.12
2018-07-08T00:12:16.334Z,75.49
2018-07-08T00:14:47.557Z,75.77
2018-07-08T00:17:18.074Z,76.00
2018-07-08T00:19:48.911Z,74.85
2018-07-08T00:22:20.220Z,75.57
2018-07-08T00:24:51.570Z,75.36
2018-07-08T00:27:22.063Z,75.70
2018-07-08T00:29:52.319Z,76.81
2018-07-08T00:32:23.446Z,76.45
2018-07-08T00:34:53.800Z,77.03
2018-07-08T00:37:25.390Z,76.74
2018-07-08T00:39:56.503Z,76.78
2018-07-08T00:42:27.625Z,75.87
2018-07-08T00:44:58.980Z,73.58
2018-07-08T00:47:30.333Z,73.76
2018-07-08T00:50:00.950Z,71.38
2018-07-08T00:52:33.322Z,71.69
2018-07-08T00:55:04.835Z,72.94
2018-07-08T00:57:35.153Z,73.78
2018-07-08T01:00:05.623Z,73.98
2018-07-08T01:02:35.845Z,75.76
2018-07-08T01:05:07.982Z,76.25
2018-07-08T01:07:39.768Z,76.72
2018-07-08T01:10:11.985Z,77.01
2018-07-08T01:12:48.867Z,76.93
2018-07-08T01:15:21.290Z,75.07
2018-07-08T01:17:52.025Z,74.08
2018-07-08T01:20:23.481Z,71.77
2018-07-08T01:22:55.248Z,71.95
2018-07-08T01:25:37.353Z,72.45
2018-07-08T01:28:09.050Z,73.84
2018-07-08T01:30:40.402Z,73.64
2018-07-08T01:33:10.913Z,74.28
2018-07-08T01:35:42.715Z,74.30
2018-07-08T01:38:14.614Z,75.18
2018-07-08T01:40:46.799Z,75.02
2018-07-08T01:43:17.237Z,74.86
2018-07-08T01:45:49.275Z,75.66
2018-07-08T01:48:19.611Z,76.38
2018-07-08T01:50:51.522Z,76.12
2018-07-08T01:53:21.959Z,76.68
2018-07-08T01:55:52.313Z,77.96
2018-07-08T01:58:23.463Z,77.45
2018-07-08T02:00:54.904Z,77.80
2018-07-08T02:03:25.521Z,78.01
2018-07-08T02:05:56.316Z,77.64
2018-07-08T02:08:27.445Z,77.86
2018-07-08T02:10:57.927Z,78.21
2018-07-08T02:13:30.216Z,78.35
2018-07-08T02:16:00.606Z,79.05
2018-07-08T02:18:31.951Z,79.77
2018-07-08T02:21:03.314Z,78.88
2018-07-08T02:23:35.806Z,78.83
2018-07-08T02:26:07.093Z,80.10
2018-07-08T02:28:39.635Z,80.09
2018-07-08T02:31:11.675Z,80.30
2018-07-08T02:33:43.240Z,80.42
2018-07-08T02:36:15.621Z,81.07
2018-07-08T02:38:49.067Z,81.97
2018-07-08T02:41:23.805Z,82.19
2018-07-08T02:43:55.236Z,82.64
2018-07-08T02:46:28.799Z,82.27
2018-07-08T02:49:00.190Z,82.13
2018-07-08T02:51:32.321Z,83.01
2018-07-08T02:54:04.355Z,83.38
2018-07-08T02:56:38.456Z,82.60
2018-07-08T02:59:10.742Z,82.66
2018-07-08T03:01:43.728Z,82.24
2018-07-08T03:04:15.151Z,82.30
2018-07-08T03:06:47.840Z,82.01
2018-07-08T03:09:19.750Z,82.55
2018-07-08T03:11:53.175Z,81.84
2018-07-08T03:14:25.761Z,81.16
2018-07-08T03:16:58.100Z,82.54
2018-07-08T03:19:30.017Z,82.27
2018-07-08T03:22:01.662Z,81.95
2018-07-08T03:24:34.603Z,81.11
2018-07-08T03:27:04.867Z,80.75
2018-07-08T03:29:35.434Z,81.41
2018-07-08T03:32:06.020Z,82.33
2018-07-08T03:34:40.359Z,82.63
2018-07-08T03:37:11.223Z,82.40
2018-07-08T03:39:42.005Z,82.15
2018-07-08T03:42:12.408Z,81.35
2018-07-08T03:44:43.763Z,80.70
2018-07-08T03:47:15.747Z,80.77
2018-07-08T03:49:46.966Z,81.08
2018-07-08T03:52:19.146Z,81.99
2018-07-08T03:54:49.955Z,82.09
2018-07-08T03:57:21.157Z,81.37
2018-07-08T03:59:52.136Z,81.57
2018-07-08T04:02:22.641Z,82.12
2018-07-08T04:04:53.635Z,81.98
2018-07-08T04:07:24.326Z,81.69
2018-07-08T04:09:54.915Z,80.60
2018-07-08T04:12:26.153Z,80.65
2018-07-08T04:14:56.495Z,80.37
2018-07-08T04:17:27.206Z,80.04
2018-07-08T04:19:57.612Z,79.73
2018-07-08T04:22:28.679Z,79.45
2018-07-08T04:24:59.782Z,79.05
2018-07-08T04:27:31.604Z,79.00
2018-07-08T04:30:02.849Z,77.36
2018-07-08T04:32:33.940Z,77.27
2018-07-08T04:35:09.631Z,75.26
2018-07-08T04:37:41.362Z,74.74
2018-07-08T04:40:13.665Z,74.41
2018-07-08T04:42:44.367Z,74.54
2018-07-08T04:45:16.427Z,75.00
2018-07-08T04:47:47.667Z,72.98
2018-07-08T04:50:19.729Z,72.11
2018-07-08T04:52:50.378Z,72.86
2018-07-08T04:55:20.708Z,72.70
2018-07-08T04:57:51.078Z,72.74
2018-07-08T05:00:22.156Z,71.71
2018-07-08T05:02:53.391Z,70.14
2018-07-08T05:05:24.043Z,71.33
2018-07-08T05:07:55.181Z,69.88
2018-07-08T05:10:25.707Z,70.66
2018-07-08T05:12:56.460Z,69.46
2018-07-08T05:15:27.398Z,69.31
2018-07-08T05:17:57.937Z,68.75
2018-07-08T05:20:29.776Z,68.89
2018-07-08T05:23:00.930Z,69.44
2018-07-08T05:25:32.109Z,67.71
2018-07-08T05:28:02.541Z,67.69
2018-07-08T05:30:33.071Z,66.89
2018-07-08T05:33:03.718Z,67.22
2018-07-08T05:35:35.003Z,66.80
2018-07-08T05:38:06.944Z,66.30
2018-07-08T05:40:37.834Z,66.99
2018-07-08T05:43:09.765Z,67.17
2018-07-08T05:45:43.414Z,66.75
2018-07-08T05:48:15.908Z,66.50
2018-07-08T05:50:46.806Z,66.59
2018-07-08T05:53:18.379Z,65.86
2018-07-08T05:55:50.324Z,65.70
2018-07-08T05:58:21.580Z,62.60
2018-07-08T06:00:51.921Z,61.31
2018-07-08T06:03:22.333Z,60.08
2018-07-08T06:05:53.225Z,60.06
2018-07-08T06:08:24.494Z,58.96
2018-07-08T06:10:58.105Z,59.40
2018-07-08T06:13:29.610Z,58.29
2018-07-08T06:16:01.624Z,58.04
2018-07-08T06:18:32.863Z,57.52
2018-07-08T06:21:04.296Z,59.23
2018-07-08T06:23:36.658Z,56.83
2018-07-08T06:26:10.089Z,56.23
2018-07-08T06:28:41.756Z,55.73
2018-07-08T06:31:13.321Z,55.86
2018-07-08T06:33:44.512Z,56.51
2018-07-08T06:36:15.889Z,56.27
2018-07-08T06:38:47.541Z,55.81
2018-07-08T06:41:24.445Z,55.14
2018-07-08T06:43:57.364Z,55.85
2018-07-08T06:46:28.282Z,55.15
2018-07-08T06:48:58.886Z,55.92
2018-07-08T06:51:29.725Z,54.08
2018-07-08T06:54:01.120Z,55.90
2018-07-08T06:56:31.876Z,55.14
2018-07-08T06:59:02.895Z,54.74
2018-07-08T07:01:33.313Z,54.01
2018-07-08T07:04:04.585Z,54.08
2018-07-08T07:06:35.537Z,53.88
2018-07-08T07:09:11.715Z,53.59
2018-07-08T07:11:42.621Z,53.27
2018-07-08T07:14:13.204Z,51.57
2018-07-08T07:16:43.555Z,51.14
2018-07-08T07:19:13.893Z,48.97
2018-07-08T07:21:44.423Z,49.34
2018-07-08T07:24:14.760Z,49.77
2018-07-08T07:26:46.639Z,47.85
2018-07-08T07:29:18.182Z,47.04
2018-07-08T07:31:49.253Z,48.41
2018-07-08T07:34:19.615Z,47.21
2018-07-08T07:36:51.333Z,49.50
2018-07-08T07:39:21.886Z,49.03
2018-07-08T07:41:52.451Z,46.03
2018-07-08T07:44:23.416Z,43.80
2018-07-08T07:46:54.208Z,43.34
2018-07-08T07:49:24.694Z,42.30
2018-07-08T07:51:57.533Z,41.81
2018-07-08T07:54:27.822Z,43.19
2018-07-08T07:56:58.420Z,42.07
2018-07-08T07:59:29.159Z,41.63
2018-07-08T08:02:00.436Z,41.09
2018-07-08T08:04:31.809Z,40.83
2018-07-08T08:07:03.015Z,40.27
2018-07-08T08:09:33.378Z,40.07
2018-07-08T08:12:05.207Z,40.15
2018-07-08T08:14:35.562Z,38.46
2018-07-08T08:17:06.741Z,36.44
2018-07-08T08:19:38.249Z,35.03
2018-07-08T08:22:10.118Z,36.01
2018-07-08T08:24:42.220Z,33.84
2018-07-08T08:27:13.605Z,35.11
2018-07-08T08:29:44.338Z,34.30
2018-07-08T08:32:18.917Z,33.41
2018-07-08T08:35:09.251Z,35.32
2018-07-08T08:37:43.472Z,35.08
2018-07-08T08:40:16.095Z,35.93
2018-07-08T08:42:46.807Z,35.63
2018-07-08T08:45:19.413Z,35.71
2018-07-08T08:47:51.133Z,33.48
2018-07-08T08:50:22.175Z,32.32
2018-07-08T08:52:52.751Z,32.11
2018-07-08T08:55:25.541Z,34.96
2018-07-08T08:58:03.629Z,32.29
2018-07-08T09:00:35.211Z,32.80
2018-07-08T09:03:06.285Z,32.94
2018-07-08T09:05:37.697Z,30.82
2018-07-08T09:08:08.923Z,30.33
2018-07-08T09:10:40.710Z,28.94
2018-07-08T09:13:16.237Z,29.74
2018-07-08T09:15:47.863Z,28.68
2018-07-08T09:18:19.274Z,28.61
2018-07-08T09:20:49.903Z,28.23
2018-07-08T09:23:21.638Z,28.17
2018-07-08T09:25:52.333Z,27.59
2018-07-08T09:28:23.681Z,27.09
2018-07-08T09:30:54.203Z,27.02
2018-07-08T09:33:25.630Z,26.45
2018-07-08T09:35:56.578Z,24.96
2018-07-08T09:38:26.892Z,23.32
2018-07-08T09:40:58.086Z,24.05
2018-07-08T09:43:29.405Z,25.31
2018-07-08T09:45:59.839Z,24.16
2018-07-08T09:48:30.876Z,22.82
2018-07-08T09:51:03.600Z,21.77
2018-07-08T09:53:35.253Z,21.98
2018-07-08T09:56:05.642Z,23.69
2018-07-08T09:58:36.213Z,21.12
2018-07-08T10:01:06.965Z,20.36
2018-07-08T10:03:37.553Z,22.49
2018-07-08T10:06:08.241Z,20.38
2018-07-08T10:08:39.543Z,20.44
2018-07-08T10:11:10.731Z,20.73
2018-07-08T10:13:41.698Z,19.60
2018-07-08T10:16:12.374Z,19.96
2018-07-08T10:18:42.755Z,19.66
2018-07-08T10:21:13.730Z,19.38
2018-07-08T10:23:44.164Z,22.30
2018-07-08T10:26:16.307Z,20.55
2018-07-08T10:28:47.378Z,19.62
2018-07-08T10:31:18.093Z,21.11
2018-07-08T10:33:56.800Z,21.60
2018-07-08T10:36:28.600Z,20.28
2018-07-08T10:38:59.152Z,20.59
2018-07-08T10:41:30.226Z,20.52
2018-07-08T10:44:02.892Z,18.75
2018-07-08T10:46:33.158Z,18.13
2018-07-08T10:49:05.742Z,19.90
2018-07-08T10:51:36.780Z,18.31
2018-07-08T10:54:08.560Z,17.84
2018-07-08T10:56:39.875Z,19.83
2018-07-08T10:59:10.515Z,17.57
2018-07-08T11:01:41.966Z,16.22
2018-07-08T11:04:12.912Z,18.14
2018-07-08T11:06:45.539Z,18.55
2018-07-08T11:09:16.140Z,20.27
2018-07-08T11:11:46.697Z,19.59
2018-07-08T11:14:17.476Z,16.92
2018-07-08T11:16:49.094Z,15.15
2018-07-08T11:19:20.293Z,14.69
2018-07-08T11:21:51.430Z,14.85
2018-07-08T11:24:22.022Z,13.62
2018-07-08T11:26:53.368Z,12.89
2018-07-08T11:29:25.113Z,11.51
2018-07-08T11:31:56.429Z,11.57
2018-07-08T11:34:27.125Z,13.39
2018-07-08T11:36:57.537Z,13.44
2018-07-08T11:39:29.097Z,11.14
2018-07-08T11:42:00.373Z,11.65
2018-07-08T11:44:32.439Z,13.18
2018-07-08T11:47:03.344Z,13.05
2018-07-08T11:49:34.485Z,14.02
2018-07-08T11:52:06.016Z,12.81
2018-07-08T11:54:36.495Z,11.61
2018-07-08T11:57:07.652Z,12.28
2018-07-08T11:59:38.557Z,11.70
2018-07-08T12:02:10.084Z,10.09
2018-07-08T12:04:41.601Z,10.22
2018-07-08T12:07:12.167Z,10.86
2018-07-08T12:09:44.147Z,11.00
2018-07-08T12:12:15.034Z,12.18
2018-07-08T12:14:45.469Z,11.09
2018-07-08T12:17:16.518Z,11.23
2018-07-08T12:19:48.001Z,10.45
2018-07-08T12:22:19.516Z,9.83
2018-07-08T12:24:50.481Z,9.19
2018-07-08T12:27:21.428Z,10.52
2018-07-08T12:29:52.004Z,9.82
2018-07-08T12:32:22.833Z,10.64
2018-07-08T12:34:54.097Z,9.46
2018-07-08T12:37:25.869Z,9.85
2018-07-08T12:39:56.699Z,9.83
2018-07-08T12:42:27.723Z,9.86
2018-07-08T12:44:59.137Z,9.97
2018-07-08T12:47:30.126Z,10.66
2018-07-08T12:50:07.211Z,10.99
2018-07-08T12:52:38.248Z,10.30
2018-07-08T12:55:09.816Z,10.23
2018-07-08T12:57:41.063Z,9.89
2018-07-08T13:00:11.404Z,9.05
2018-07-08T13:02:41.768Z,9.77
2018-07-08T13:05:13.126Z,10.27
2018-07-08T13:07:45.090Z,9.68
2018-07-08T13:10:15.551Z,9.83
2018-07-08T13:12:46.906Z,9.99
2018-07-08T13:15:18.091Z,10.06
2018-07-08T13:17:49.650Z,9.96
2018-07-08T13:20:20.924Z,11.67
2018-07-08T13:22:52.116Z,10.86
2018-07-08T13:25:22.501Z,11.13
2018-07-08T13:27:54.240Z,10.98
2018-07-08T13:30:27.596Z,11.10
2018-07-08T13:32:58.538Z,10.85
2018-07-08T13:35:29.525Z,12.37
2018-07-08T13:38:00.365Z,11.76
2018-07-08T13:40:33.228Z,11.72
2018-07-08T13:43:04.307Z,11.89
2018-07-08T13:45:38.172Z,11.00
2018-07-08T13:48:09.856Z,11.17
2018-07-08T13:50:41.986Z,12.23
2018-07-08T13:53:13.317Z,12.62
2018-07-08T13:55:46.171Z,11.88
2018-07-08T13:58:17.726Z,11.52
2018-07-08T14:00:48.584Z,11.85
2018-07-08T14:03:19.646Z,11.51
2018-07-08T14:05:50.309Z,11.27
2018-07-08T14:08:21.789Z,11.13
2018-07-08T14:10:52.374Z,10.70
2018-07-08T14:13:23.539Z,10.10
2018-07-08T14:15:55.104Z,11.08
2018-07-08T14:18:27.396Z,12.31
2018-07-08T14:20:58.730Z,11.12
2018-07-08T14:23:30.663Z,12.00
2018-07-08T14:26:01.320Z,14.97
2018-07-08T14:28:33.430Z,15.64
2018-07-08T14:31:04.715Z,15.19
2018-07-08T14:33:35.638Z,17.03
2018-07-08T14:36:06.546Z,16.07
2018-07-08T14:38:37.160Z,14.54
2018-07-08T14:41:07.476Z,13.27
2018-07-08T14:43:40.130Z,12.06
2018-07-08T14:46:11.244Z,12.69
2018-07-08T14:48:43.529Z,13.32
2018-07-08T14:51:14.422Z,12.43
2018-07-08T14:53:45.022Z,11.39
2018-07-08T14:56:16.382Z,14.35
2018-07-08T14:58:47.630Z,13.77
2018-07-08T15:01:19.093Z,16.13
2018-07-08T15:03:50.326Z,16.35
2018-07-08T15:06:21.442Z,13.40
2018-07-08T15:08:52.837Z,12.39
2018-07-08T15:11:24.227Z,13.74
2018-07-08T15:13:54.823Z,15.10
2018-07-08T15:16:26.799Z,15.46
2018-07-08T15:18:57.655Z,17.14
2018-07-08T15:21:29.206Z,15.54
2018-07-08T15:24:00.914Z,15.99
2018-07-08T15:26:31.551Z,13.84
2018-07-08T15:29:03.302Z,13.72
2018-07-08T15:31:34.531Z,13.65
2018-07-08T15:34:04.928Z,12.76
2018-07-08T15:36:36.000Z,12.54
2018-07-08T15:39:07.968Z,13.38
2018-07-08T15:41:38.590Z,12.14
2018-07-08T15:44:09.401Z,15.66
2018-07-08T15:46:40.900Z,17.72
2018-07-08T15:49:12.679Z,15.73
2018-07-08T15:51:45.471Z,17.29
2018-07-08T15:54:17.140Z,17.01
2018-07-08T15:56:48.928Z,16.48
2018-07-08T15:59:20.261Z,15.87
2018-07-08T16:01:51.348Z,15.50
2018-07-08T16:04:24.438Z,14.98
2018-07-08T16:06:55.546Z,15.16
2018-07-08T16:09:25.736Z,14.87
2018-07-08T16:11:56.453Z,14.68
2018-07-08T16:14:27.159Z,14.99
2018-07-08T16:16:58.835Z,14.10
2018-07-08T16:19:29.954Z,13.01
2018-07-08T16:22:02.056Z,15.40
2018-07-08T16:24:34.008Z,15.27
2018-07-08T16:27:06.172Z,15.08
2018-07-08T16:29:37.688Z,15.02
2018-07-08T16:32:09.114Z,15.34
2018-07-08T16:34:39.716Z,14.87
2018-07-08T16:37:10.541Z,15.03
2018-07-08T16:39:42.887Z,13.83
2018-07-08T16:42:15.667Z,15.50
2018-07-08T16:44:48.351Z,14.54
2018-07-08T16:47:18.815Z,14.85
2018-07-08T16:49:51.421Z,14.71
2018-07-08T16:52:22.831Z,15.02
2018-07-08T16:54:54.379Z,15.40
2018-07-08T16:57:26.108Z,15.53
2018-07-08T16:59:57.301Z,17.14
2018-07-08T17:02:32.209Z,16.07
2018-07-08T17:05:03.874Z,17.24
2018-07-08T17:07:34.393Z,19.88
2018-07-08T17:10:05.703Z,23.24
2018-07-08T17:12:36.611Z,25.80
2018-07-08T17:15:09.003Z,25.73
2018-07-08T17:17:39.703Z,26.54
2018-07-08T17:20:11.238Z,26.00
2018-07-08T17:22:44.135Z,25.55
2018-07-08T17:25:16.418Z,26.97
2018-07-08T17:27:48.328Z,27.51
2018-07-08T17:30:29.075Z,28.07
2018-07-08T17:33:03.441Z,27.53
2018-07-08T17:35:37.387Z,28.03
2018-07-08T17:38:09.352Z,28.40
2018-07-08T17:40:42.148Z,29.14
2018-07-08T17:43:13.025Z,28.61
2018-07-08T17:45:49.880Z,29.24
2018-07-08T17:48:34.245Z,29.17
2018-07-08T17:51:17.185Z,29.11
2018-07-08T17:53:50.015Z,29.70
2018-07-08T17:56:21.018Z,29.62
2018-07-08T17:58:52.376Z,30.91
2018-07-08T18:01:24.012Z,30.17
2018-07-08T18:03:58.282Z,30.68
2018-07-08T18:06:30.302Z,31.30
2018-07-08T18:09:03.315Z,30.80
2018-07-08T18:11:35.242Z,30.82
2018-07-08T18:14:07.010Z,31.24
2018-07-08T18:16:38.194Z,32.59
2018-07-08T18:19:09.930Z,32.95
2018-07-08T18:21:41.140Z,33.08
2018-07-08T18:24:12.332Z,33.02
2018-07-08T18:26:43.962Z,34.32
2018-07-08T18:29:14.894Z,34.95
2018-07-08T18:31:45.228Z,35.59
2018-07-08T18:34:16.020Z,36.38
2018-07-08T18:36:46.584Z,36.97
2018-07-08T18:39:17.429Z,36.91
2018-07-08T18:41:49.375Z,37.43
2018-07-08T18:44:20.733Z,38.07
2018-07-08T18:46:52.978Z,38.54
2018-07-08T18:49:23.288Z,38.36
2018-07-08T18:51:54.040Z,38.85
2018-07-08T18:54:25.304Z,38.64
2018-07-08T18:56:56.530Z,39.10
2018-07-08T18:59:27.146Z,39.10
2018-07-08T19:01:57.872Z,39.72
2018-07-08T19:04:29.398Z,39.70
2018-07-08T19:07:00.271Z,40.15
2018-07-08T19:09:31.292Z,40.39
2018-07-08T19:12:03.902Z,41.10
2018-07-08T19:14:36.039Z,40.88
2018-07-08T19:17:07.372Z,41.82
2018-07-08T19:19:38.115Z,41.35
2018-07-08T19:22:09.174Z,41.93
2018-07-08T19:24:40.154Z,42.00
2018-07-08T19:27:11.441Z,43.05
2018-07-08T19:29:43.361Z,42.29
2018-07-08T19:32:14.477Z,43.27
2018-07-08T19:34:45.125Z,43.68
2018-07-08T19:37:17.287Z,43.56
2018-07-08T19:39:48.645Z,43.82
2018-07-08T19:42:19.676Z,44.01
2018-07-08T19:44:50.431Z,44.01
2018-07-08T19:47:22.045Z,44.21
2018-07-08T19:49:52.587Z,45.15
2018-07-08T19:52:24.621Z,45.02
2018-07-08T19:54:54.799Z,44.86
2018-07-08T19:57:27.170Z,45.32
2018-07-08T19:59:57.518Z,46.67
2018-07-08T20:02:29.223Z,45.42
2018-07-08T20:05:01.338Z,46.19
2018-07-08T20:07:33.138Z,46.88
2018-07-08T20:10:05.128Z,47.30
2018-07-08T20:12:35.406Z,46.61
2018-07-08T20:15:06.569Z,47.30
2018-07-08T20:17:37.638Z,47.43
2018-07-08T20:20:09.543Z,48.14
2018-07-08T20:22:40.202Z,49.01
2018-07-08T20:25:11.615Z,49.12
2018-07-08T20:27:43.595Z,48.64
2018-07-08T20:30:14.829Z,48.32
2018-07-08T20:32:45.547Z,47.90
2018-07-08T20:35:17.966Z,47.58
2018-07-08T20:37:48.655Z,47.06
2018-07-08T20:40:19.216Z,46.90
2018-07-08T20:42:49.835Z,47.30
2018-07-08T20:45:21.289Z,46.56
2018-07-08T20:47:52.390Z,45.83
2018-07-08T20:50:24.510Z,46.55
2018-07-08T20:52:56.405Z,46.40
2018-07-08T20:55:26.976Z,46.25
2018-07-08T20:57:58.148Z,47.21
2018-07-08T21:00:28.605Z,47.70
2018-07-08T21:02:59.011Z,47.69
2018-07-08T21:05:29.377Z,48.50
2018-07-08T21:08:00.203Z,48.45
2018-07-08T21:10:31.388Z,48.91
2018-07-08T21:13:03.129Z,49.16
2018-07-08T21:15:33.571Z,49.58
2018-07-08T21:18:04.382Z,50.10
2018-07-08T21:20:35.643Z,50.44
2018-07-08T21:23:06.442Z,50.64
2018-07-08T21:25:37.698Z,51.44
2018-07-08T21:28:08.496Z,51.65
2018-07-08T21:30:39.974Z,51.49
2018-07-08T21:33:11.123Z,52.21
2018-07-08T21:35:41.843Z,51.97
2018-07-08T21:38:13.798Z,51.14
2018-07-08T21:40:47.762Z,51.29
2018-07-08T21:43:19.634Z,50.77
2018-07-08T21:45:50.249Z,51.23
2018-07-08T21:48:21.209Z,50.56
2018-07-08T21:50:51.905Z,51.44
2018-07-08T21:53:22.623Z,51.35
2018-07-08T21:55:54.189Z,51.13
2018-07-08T21:58:25.579Z,51.57
2018-07-08T22:01:15.632Z,51.55
2018-07-08T22:03:50.064Z,51.94
2018-07-08T22:06:21.992Z,52.54
2018-07-08T22:08:53.835Z,52.63
2018-07-08T22:11:24.934Z,51.70
2018-07-08T22:13:56.072Z,51.79
2018-07-08T22:16:27.188Z,53.16
2018-07-08T22:18:59.030Z,52.37
2018-07-08T22:21:29.850Z,52.37
2018-07-08T22:24:01.930Z,52.87
2018-07-08T22:26:33.207Z,53.57
2018-07-08T22:29:07.007Z,54.11
2018-07-08T22:31:41.130Z,51.83
2018-07-08T22:34:13.199Z,53.78
2018-07-08T22:36:45.271Z,55.04
2018-07-08T22:39:16.076Z,54.33
2018-07-08T22:41:46.666Z,54.24
2018-07-08T22:44:17.132Z,54.90
2018-07-08T22:46:48.200Z,55.75
2018-07-08T22:49:23.111Z,55.55
2018-07-08T22:51:57.645Z,56.65
2018-07-08T22:54:29.213Z,58.00
2018-07-08T22:56:59.752Z,58.00
2018-07-08T22:59:31.212Z,59.85
2018-07-08T23:02:12.589Z,58.35
2018-07-08T23:04:47.796Z,59.72
2018-07-08T23:07:18.444Z,60.59
2018-07-08T23:09:49.339Z,59.64
2018-07-08T23:12:19.715Z,60.34
2018-07-08T23:14:50.980Z,60.37
2018-07-08T23:17:22.177Z,61.77
2018-07-08T23:19:53.730Z,63.00
2018-07-08T23:22:33.967Z,63.29
2018-07-08T23:25:06.128Z,63.46
2018-07-08T23:27:37.079Z,63.71
2018-07-08T23:30:08.057Z,63.45
2018-07-08T23:32:39.579Z,64.06
2018-07-08T23:35:10.261Z,64.78
2018-07-08T23:37:40.555Z,63.94
2018-07-08T23:40:11.151Z,64.24
2018-07-08T23:42:42.461Z,64.58
2018-07-08T23:45:18.321Z,65.50
2018-07-08T23:47:49.973Z,65.82
2018-07-08T23:50:20.870Z,66.63
2018-07-08T23:52:51.505Z,66.55
2018-07-08T23:55:22.057Z,67.85
2018-07-08T23:57:52.864Z,68.43
